Airfield :
LOGIN :

Register | Disclaimer

   EN    FR    IT 

 










Legend :    VFR   Marginal VFR   IFR   Intensive IFR   Very Intensive IFR
Visi :
Ceiling :
>= 8 km
>= 3000ft
5 to 8 km
1000 to 3000 ft
1500m to 5 km
500 to 1000 ft
800 to 1500m
200 to 500 ft
< 800m
< 200 ft
Symbols :   Thunderstorms  Fog  Heavy snow  Heavy precipitations  Wind > 20 kt
SIGMETs :     Misc.  Thunderstorms  Icing  Turbulence  Mountain Waves  Volcanic Ashes







- Airport Elevation : 297 ft


EGVP - Middle Wallop

CURRENT METAR :
  • 160750Z 21010KT 9999 -DZ BKN005 OVC010 08/08 Q1006 YLO1 TEMPO 3000 DZ BKN004 YLO2

EXPIRED METARs :
  • 160650Z 21009KT 3000 -DZ BKN004 BKN006 08/08 Q1007 YLO2
  • 160550Z AUTO 21009KT 3500 // BKN004/// BKN011/// 08/08 Q1008

TAF TAF EGVP
Valid from the 16 at 07:00 until the 16 at 15:00 UTC


160658Z 1607/1615 21010KT 5000 -RADZ BKN007
TEMPO 1607/1610 3000 RADZ BKN004
BECMG 1610/1612 9999 NSW BKN025
TEMPO 1612/1615 6000 RA BKN015
ATIS : +44 1980 674 142
No reported NOTAMs for that airfield.



MET'MAP, your aeronautical weather chart ! - Copyright ORBIFLY December 2007 - Disclaimer

ORBIFLY MET'MAP TEAM :

Programming & Development : Alexandra Zaïnal
Concept & Development : Baudouin d'Aumeries
Co-Development & Prog : Marc-Olivier Méhu
Technical & hardware support : Manuel Goepfert

Contact : metmap@orbifly.com




SOURCES & CREDITS :

   NOAA